Time;durP1;ratioP1;P1;durP2;ratioP2;P2;SDS_P1;SDS_P2;PMS_P1;PMS_P2;Temp;Humidity;BMP_temperature;BMP_pressure;BME280_temperature;BME280_humidity;BME280_pressure;Samples;Min_cycle;Max_cycle;Signal;HPM_P1;HPM_P2
2022/05/17 00:01:38;;;;;;;8.73;4.50;;;;;;;19.07;59.01;100195.97;4952316;29;20051;-84
2022/05/17 00:04:05;;;;;;;7.22;3.97;;;;;;;19.10;58.69;100202.84;4952748;29;20559;-84
2022/05/17 00:06:32;;;;;;;10.00;4.43;;;;;;;19.11;58.96;100197.34;4935847;29;20059;-83
2022/05/17 00:08:59;;;;;;;8.88;4.53;;;;;;;19.11;58.62;100202.69;4935526;29;20055;-85
2022/05/17 00:11:26;;;;;;;7.85;4.43;;;;;;;19.14;58.74;100194.44;4952105;28;20059;-84
2022/05/17 00:13:53;;;;;;;9.68;4.53;;;;;;;19.15;58.71;100195.28;4935451;29;20083;-85
2022/05/17 00:16:20;;;;;;;13.75;5.90;;;;;;;19.15;58.87;100192.63;4952510;29;20055;-84
2022/05/17 00:18:47;;;;;;;11.10;4.70;;;;;;;19.18;58.72;100194.16;4952882;29;20062;-83
2022/05/17 00:21:14;;;;;;;11.73;5.35;;;;;;;19.18;58.81;100195.03;4952103;29;20084;-83
2022/05/17 00:23:42;;;;;;;7.40;5.05;;;;;;;19.19;58.53;100187.84;4952842;29;20058;-84
2022/05/17 00:26:09;;;;;;;10.75;5.15;;;;;;;19.20;58.56;100187.72;4952650;29;20109;-83
2022/05/17 00:28:37;;;;;;;10.20;4.43;;;;;;;19.22;58.44;100185.75;4952857;29;20059;-83
2022/05/17 00:31:06;;;;;;;9.98;5.57;;;;;;;19.24;58.57;100185.63;4952220;29;20413;-83
2022/05/17 00:33:33;;;;;;;11.18;5.13;;;;;;;19.24;58.42;100182.94;4952418;29;20086;-83
2022/05/17 00:36:01;;;;;;;10.35;4.25;;;;;;;19.24;58.20;100182.94;4952013;29;20106;-83
2022/05/17 00:38:28;;;;;;;9.52;5.10;;;;;;;19.24;58.34;100182.94;4952542;29;20055;-82
2022/05/17 00:40:54;;;;;;;12.43;4.80;;;;;;;19.25;58.31;100176.66;4952362;29;20047;-83
2022/05/17 00:44:42;;;;;;;10.38;4.53;;;;;;;19.22;58.49;100174.25;4935016;29;20512;-83
2022/05/17 00:46:27;;;;;;;11.25;4.20;;;;;;;19.24;58.02;100173.13;4952040;28;20461;-84
2022/05/17 00:48:54;;;;;;;9.43;4.55;;;;;;;19.24;57.93;100185.63;4952434;29;20425;-83
2022/05/17 00:51:25;;;;;;;13.32;4.78;;;;;;;19.22;57.60;100172.41;4952081;29;20055;-84
2022/05/17 00:53:59;;;;;;;9.85;4.78;;;;;;;19.21;57.47;100180.56;4952246;29;20055;-84
2022/05/17 00:56:26;;;;;;;13.52;4.50;;;;;;;19.20;57.60;100176.19;4952142;29;20533;-83
2022/05/17 00:58:58;;;;;;;9.98;4.28;;;;;;;19.14;57.70;100172.25;4934990;29;20055;-84
2022/05/17 01:01:31;;;;;;;13.90;4.43;;;;;;;19.09;57.57;100182.47;4935081;29;20055;-84
2022/05/17 01:04:09;;;;;;;9.43;4.57;;;;;;;19.03;57.93;100178.50;4951267;29;20078;-83
2022/05/17 01:06:40;;;;;;;9.13;4.10;;;;;;;19.02;57.55;100177.63;4952023;29;20134;-84
2022/05/17 01:09:07;;;;;;;7.70;3.88;;;;;;;18.99;57.52;100177.88;4952246;29;20047;-84
2022/05/17 01:11:33;;;;;;;8.20;4.10;;;;;;;18.96;57.66;100185.31;4951807;29;20063;-84
2022/05/17 01:16:45;;;;;;;11.18;4.05;;;;;;;18.87;57.64;100179.78;4951985;29;20051;-84
2022/05/17 01:19:13;;;;;;;10.60;4.38;;;;;;;18.83;57.69;100191.69;4952123;29;20115;-85
2022/05/17 01:21:40;;;;;;;9.63;4.47;;;;;;;18.80;57.50;100185.78;4951829;29;20497;-84
2022/05/17 01:24:07;;;;;;;14.13;4.28;;;;;;;18.76;57.74;100185.19;4953796;28;20312;-84
2022/05/17 01:26:38;;;;;;;10.68;4.57;;;;;;;18.70;58.18;100186.56;4955919;29;20130;-85
2022/05/17 01:29:05;;;;;;;8.00;3.53;;;;;;;18.68;57.85;100180.50;4955626;29;20504;-84
2022/05/17 01:31:35;;;;;;;9.57;4.15;;;;;;;18.66;57.80;100178.97;4938134;29;20512;-84
2022/05/17 01:34:05;;;;;;;10.60;3.83;;;;;;;18.63;58.14;100190.72;4938342;29;20051;-84
2022/05/17 01:36:32;;;;;;;10.23;4.10;;;;;;;18.62;58.01;100186.38;4938521;29;20324;-84
2022/05/17 01:38:58;;;;;;;11.82;4.55;;;;;;;18.60;58.16;100188.31;4938364;29;20109;-84
2022/05/17 01:41:25;;;;;;;11.02;3.65;;;;;;;18.58;58.04;100187.63;4955257;29;20058;-85
2022/05/17 01:43:53;;;;;;;5.35;3.42;;;;;;;18.56;57.99;100189.53;4955568;29;20059;-83
2022/05/17 01:46:20;;;;;;;8.73;3.78;;;;;;;18.53;58.28;100185.31;4938379;29;20061;-83
2022/05/17 01:48:47;;;;;;;7.90;3.58;;;;;;;18.51;58.03;100187.28;4955482;29;20568;-84
2022/05/17 01:51:14;;;;;;;10.15;3.92;;;;;;;18.48;58.13;100183.06;4954942;29;20110;-84
2022/05/17 01:53:40;;;;;;;11.40;3.70;;;;;;;18.46;58.28;100184.13;4955514;29;20473;-83
2022/05/17 01:56:08;;;;;;;9.60;3.70;;;;;;;18.44;58.16;100188.75;4955539;29;20497;-85
2022/05/17 01:58:36;;;;;;;7.78;3.50;;;;;;;18.41;58.31;100183.69;4953924;29;20047;-84
2022/05/17 02:01:05;;;;;;;11.57;4.20;;;;;;;18.39;58.51;100183.78;4938058;29;20051;-84
2022/05/17 02:03:32;;;;;;;10.13;3.55;;;;;;;18.38;58.19;100175.97;4954690;29;20118;-84
2022/05/17 02:05:59;;;;;;;11.02;3.50;;;;;;;18.36;58.30;100176.91;4938309;29;20106;-85
2022/05/17 02:08:25;;;;;;;9.10;3.47;;;;;;;18.35;58.44;100183.22;4938029;29;20113;-85
2022/05/17 02:10:52;;;;;;;10.50;4.28;;;;;;;18.32;58.46;100175.47;4955382;29;20110;-85
2022/05/17 02:13:19;;;;;;;9.32;3.80;;;;;;;18.32;58.50;100161.31;4958010;29;20051;-85
2022/05/17 02:15:46;;;;;;;8.30;3.90;;;;;;;18.31;58.47;100179.13;4956924;29;20440;-84
2022/05/17 02:18:12;;;;;;;11.18;3.72;;;;;;;18.29;58.42;100173.09;4954695;29;20063;-85
2022/05/17 02:20:39;;;;;;;10.85;4.60;;;;;;;18.28;58.69;100176.69;4954745;29;20058;-85
2022/05/17 02:23:07;;;;;;;10.18;3.63;;;;;;;18.26;58.60;100177.81;4954471;29;20102;-85
2022/05/17 02:25:34;;;;;;;13.85;4.35;;;;;;;18.26;58.73;100185.78;4954785;29;20055;-85
2022/05/17 02:28:03;;;;;;;10.30;3.97;;;;;;;18.25;58.72;100187.63;4954809;29;20051;-85
2022/05/17 02:30:31;;;;;;;9.93;4.10;;;;;;;18.23;58.56;100185.09;4955011;29;20054;-84
2022/05/17 02:32:58;;;;;;;8.27;3.95;;;;;;;18.23;58.57;100189.56;4954510;29;20501;-83
2022/05/17 02:35:25;;;;;;;11.00;4.90;;;;;;;18.22;58.55;100182.56;4953773;28;20055;-84
2022/05/17 02:37:51;;;;;;;11.57;4.22;;;;;;;18.20;58.70;100182.66;4955478;29;20055;-86
2022/05/17 02:40:18;;;;;;;8.20;3.90;;;;;;;18.21;58.72;100186.19;4938107;29;20047;-85
2022/05/17 02:42:44;;;;;;;7.93;3.55;;;;;;;18.20;58.55;100192.47;4954862;29;20516;-85
2022/05/17 02:45:11;;;;;;;12.13;4.30;;;;;;;18.19;58.71;100196.13;4955437;29;20051;-86
2022/05/17 02:47:37;;;;;;;9.95;4.57;;;;;;;18.17;58.63;100190.91;4955294;29;20058;-85
2022/05/17 02:50:05;;;;;;;9.00;4.18;;;;;;;18.16;58.64;100193.72;4938280;29;20395;-86
2022/05/17 02:52:32;;;;;;;11.75;4.60;;;;;;;18.14;58.78;100188.53;4959219;29;20055;-85
2022/05/17 02:54:58;;;;;;;14.10;4.88;;;;;;;18.13;58.55;100191.31;4959557;29;20051;-85
2022/05/17 02:57:25;;;;;;;13.65;4.30;;;;;;;18.10;58.60;100185.25;4959591;29;20492;-85
2022/05/17 02:59:51;;;;;;;9.02;4.13;;;;;;;18.08;58.60;100186.34;4959901;29;20094;-85
2022/05/17 03:02:18;;;;;;;8.57;4.18;;;;;;;18.06;58.78;100197.09;4959480;29;20051;-86
2022/05/17 03:04:45;;;;;;;9.73;3.35;;;;;;;18.04;58.69;100200.84;4941974;29;20051;-86
2022/05/17 03:07:12;;;;;;;13.63;4.78;;;;;;;18.01;58.65;100196.63;4959571;29;20580;-87
2022/05/17 03:09:38;;;;;;;10.35;4.15;;;;;;;18.00;58.86;100202.06;4959867;29;20113;-87
2022/05/17 03:12:05;;;;;;;7.43;3.63;;;;;;;17.96;58.76;100194.34;4959146;29;20106;-85
2022/05/17 03:14:32;;;;;;;8.18;3.95;;;;;;;17.95;58.88;100200.63;4942448;29;20047;-85
2022/05/17 03:16:58;;;;;;;8.77;3.88;;;;;;;17.94;58.87;100211.44;4959830;29;20076;-84
2022/05/17 03:19:25;;;;;;;10.05;4.15;;;;;;;17.91;59.13;100204.50;4959709;29;20063;-84
2022/05/17 03:21:52;;;;;;;11.02;4.47;;;;;;;17.90;59.15;100213.47;4958588;29;20055;-85
2022/05/17 03:24:18;;;;;;;12.73;4.30;;;;;;;17.89;59.30;100221.59;4959154;29;20051;-86
2022/05/17 03:27:05;;;;;;;8.07;4.03;;;;;;;17.89;59.33;100224.25;4959547;29;20059;-87
2022/05/17 03:29:32;;;;;;;8.00;3.72;;;;;;;17.87;59.16;100220.88;4959062;29;20081;-85
2022/05/17 03:32:00;;;;;;;9.63;4.30;;;;;;;17.84;59.42;100220.13;4959652;29;20055;-86
2022/05/17 03:34:27;;;;;;;11.68;4.55;;;;;;;17.84;59.41;100229.97;4960256;29;20065;-86
2022/05/17 03:36:53;;;;;;;11.75;4.00;;;;;;;17.83;59.43;100229.09;4942534;29;20051;-85
2022/05/17 03:39:20;;;;;;;11.15;4.57;;;;;;;17.82;59.50;100227.41;4958924;29;20051;-85
2022/05/17 03:41:46;;;;;;;8.43;4.05;;;;;;;17.82;59.38;100227.41;4943166;29;20047;-86
2022/05/17 03:44:13;;;;;;;9.57;4.53;;;;;;;17.81;59.39;100232.88;4959816;29;20134;-85
2022/05/17 03:46:39;;;;;;;10.73;4.75;;;;;;;17.79;59.49;100225.00;4958522;28;20612;-86
2022/05/17 03:49:09;;;;;;;9.30;4.68;;;;;;;17.77;59.59;100232.28;4942714;29;20572;-86
2022/05/17 03:51:36;;;;;;;11.13;4.80;;;;;;;17.76;59.57;100232.38;4958115;29;20043;-87
2022/05/17 03:54:02;;;;;;;11.02;4.82;;;;;;;17.74;59.60;100227.19;4958864;29;20063;-86
2022/05/17 03:56:29;;;;;;;13.93;5.22;;;;;;;17.73;59.65;100229.97;4943617;29;20066;-86
2022/05/17 03:58:55;;;;;;;11.35;4.97;;;;;;;17.70;59.95;100223.94;4944029;29;20051;-86
2022/05/17 04:01:22;;;;;;;13.77;5.45;;;;;;;17.70;59.83;100231.06;4959845;29;20556;-85
2022/05/17 04:03:49;;;;;;;12.95;5.63;;;;;;;17.69;59.72;100230.19;4959675;29;20169;-86
2022/05/17 04:06:21;;;;;;;12.73;5.68;;;;;;;17.69;59.90;100218.72;4959161;29;20058;-86
2022/05/17 04:08:50;;;;;;;8.48;4.65;;;;;;;17.69;59.76;100229.38;4941752;29;20055;-84
2022/05/17 04:11:16;;;;;;;10.00;5.25;;;;;;;17.68;60.01;100233.84;4958910;29;20115;-86
2022/05/17 04:13:43;;;;;;;7.43;4.88;;;;;;;17.68;59.93;100235.66;4958885;29;20106;-86
2022/05/17 04:16:10;;;;;;;11.88;5.18;;;;;;;17.68;59.97;100235.66;4941687;29;20106;-86
2022/05/17 04:18:37;;;;;;;10.23;4.75;;;;;;;17.67;60.15;100232.16;4959856;29;20051;-87
2022/05/17 04:21:04;;;;;;;10.20;4.95;;;;;;;17.68;60.15;100233.00;4953889;29;20051;-87
2022/05/17 04:23:31;;;;;;;9.40;5.10;;;;;;;17.69;60.44;100245.34;4954091;29;20054;-84
2022/05/17 04:25:58;;;;;;;10.52;5.05;;;;;;;17.71;60.17;100235.41;4952892;29;20051;-84
2022/05/17 04:28:25;;;;;;;9.35;4.53;;;;;;;17.73;60.40;100241.47;4936396;29;20581;-84
2022/05/17 04:30:51;;;;;;;9.32;4.43;;;;;;;17.75;60.52;100242.19;4952641;29;20051;-84
2022/05/17 04:33:18;;;;;;;10.55;4.80;;;;;;;17.77;60.29;100237.59;4951942;29;20580;-84
2022/05/17 04:35:45;;;;;;;13.02;5.32;;;;;;;17.79;60.49;100254.28;4952912;29;20055;-85
2022/05/17 04:38:11;;;;;;;7.07;4.07;;;;;;;17.81;60.60;100249.69;4952913;29;20051;-84
2022/05/17 04:40:39;;;;;;;10.18;4.05;;;;;;;17.84;60.65;100253.94;4952727;29;20054;-84
2022/05/17 04:43:05;;;;;;;11.63;4.88;;;;;;;17.87;60.75;100250.16;4935136;29;20051;-84
2022/05/17 04:45:32;;;;;;;9.45;4.53;;;;;;;17.89;60.68;100246.41;4935377;29;20133;-84
2022/05/17 04:47:59;;;;;;;10.23;4.60;;;;;;;17.92;60.75;100245.31;4950992;29;20055;-84
2022/05/17 04:50:26;;;;;;;11.55;4.70;;;;;;;17.96;60.89;100254.75;4950664;29;20055;-84
2022/05/17 04:52:53;;;;;;;10.50;4.40;;;;;;;18.00;60.78;100256.19;4951170;29;20055;-84
2022/05/17 04:55:21;;;;;;;10.48;4.63;;;;;;;18.03;60.75;100250.63;4950858;29;20122;-85
2022/05/17 04:57:48;;;;;;;11.93;4.53;;;;;;;18.08;60.56;100247.63;4950935;28;20051;-84
2022/05/17 05:00:18;;;;;;;14.15;5.00;;;;;;;18.12;60.94;100258.88;4954685;29;20453;-84
2022/05/17 05:02:45;;;;;;;10.25;4.82;;;;;;;18.17;60.68;100260.19;4956053;29;20047;-84
2022/05/17 05:05:12;;;;;;;10.70;4.63;;;;;;;18.20;60.47;100264.41;4955418;29;20106;-84
2022/05/17 05:07:39;;;;;;;9.88;4.60;;;;;;;18.24;60.46;100263.19;4956146;29;20106;-84
2022/05/17 05:10:06;;;;;;;7.72;4.07;;;;;;;18.28;60.31;100272.63;4956232;29;20051;-85
2022/05/17 05:12:33;;;;;;;11.93;4.60;;;;;;;18.30;60.44;100265.38;4956054;29;20055;-84
2022/05/17 05:15:00;;;;;;;11.68;4.90;;;;;;;18.34;60.25;100272.16;4956359;29;20051;-84
2022/05/17 05:17:31;;;;;;;10.15;4.35;;;;;;;18.35;60.53;100273.84;4955813;29;20110;-84
2022/05/17 05:19:58;;;;;;;11.13;4.65;;;;;;;18.38;60.08;100272.72;4954606;29;20569;-84
2022/05/17 05:22:26;;;;;;;8.43;5.05;;;;;;;18.41;59.95;100268.97;4955424;29;20051;-84
2022/05/17 05:24:52;;;;;;;8.77;4.28;;;;;;;18.42;60.11;100273.31;4954646;29;20054;-84
2022/05/17 05:27:19;;;;;;;9.07;4.68;;;;;;;18.42;60.25;100262.66;4955748;29;20051;-84
2022/05/17 05:29:46;;;;;;;14.85;4.90;;;;;;;18.46;59.78;100277.41;4955821;29;20059;-84
2022/05/17 05:32:12;;;;;;;10.68;4.50;;;;;;;18.47;60.09;100276.47;4955738;29;20382;-84
2022/05/17 05:34:39;;;;;;;11.18;4.57;;;;;;;18.48;59.89;100276.34;4955869;29;20055;-84
2022/05/17 05:37:05;;;;;;;12.80;4.82;;;;;;;18.49;60.14;100264.72;4955884;29;20055;-84
2022/05/17 05:39:32;;;;;;;10.35;4.45;;;;;;;18.51;59.95;100272.59;4955821;29;20051;-84
2022/05/17 05:41:59;;;;;;;9.73;4.68;;;;;;;18.53;60.09;100269.75;4955775;29;20051;-84
2022/05/17 05:44:26;;;;;;;10.70;4.75;;;;;;;18.55;59.77;100263.38;4955823;29;20473;-84
2022/05/17 05:46:52;;;;;;;11.18;4.35;;;;;;;18.59;60.29;100264.81;4955710;29;20110;-84
2022/05/17 05:49:19;;;;;;;11.40;4.85;;;;;;;18.62;60.35;100264.53;4938255;29;20061;-84
2022/05/17 05:51:47;;;;;;;9.50;4.35;;;;;;;18.67;60.09;100263.28;4955167;29;20051;-83
2022/05/17 05:54:14;;;;;;;11.95;4.70;;;;;;;18.71;60.27;100262.06;4955335;29;20403;-84
2022/05/17 05:56:41;;;;;;;7.47;4.78;;;;;;;18.77;60.24;100263.38;4955141;29;20051;-84
2022/05/17 05:59:08;;;;;;;10.88;4.38;;;;;;;18.81;60.01;100268.34;4955216;29;20059;-84
2022/05/17 06:01:35;;;;;;;8.38;3.95;;;;;;;18.87;60.03;100269.63;4955125;29;20121;-84
2022/05/17 06:04:02;;;;;;;14.15;4.75;;;;;;;18.92;59.88;100271.91;4955530;29;20090;-84
2022/05/17 06:06:30;;;;;;;9.07;4.30;;;;;;;18.96;59.83;100273.34;4955222;29;20532;-84
2022/05/17 06:08:57;;;;;;;6.50;3.90;;;;;;;19.01;59.84;100281.81;4954869;28;20050;-84
2022/05/17 06:11:23;;;;;;;12.38;4.68;;;;;;;19.07;59.93;100283.16;4937840;29;20047;-84
2022/05/17 06:13:50;;;;;;;7.95;3.95;;;;;;;19.12;59.52;100283.59;4954681;29;20417;-84
2022/05/17 06:16:17;;;;;;;10.90;4.00;;;;;;;19.18;59.62;100290.25;4937575;29;20509;-84
2022/05/17 06:18:44;;;;;;;9.93;4.20;;;;;;;19.24;59.81;100284.38;4955187;29;20055;-85
2022/05/17 06:21:11;;;;;;;10.32;4.20;;;;;;;19.31;59.72;100279.34;4937703;29;20185;-84
2022/05/17 06:23:38;;;;;;;7.88;3.35;;;;;;;19.39;59.65;100282.19;4954641;29;20055;-84
2022/05/17 06:26:05;;;;;;;7.90;3.72;;;;;;;19.46;59.19;100285.19;4954775;29;20055;-84
2022/05/17 06:28:32;;;;;;;9.95;4.13;;;;;;;19.52;58.99;100282.00;4937370;29;20415;-84
2022/05/17 06:30:59;;;;;;;8.07;3.72;;;;;;;19.59;59.05;100283.16;4954618;29;20055;-84
2022/05/17 06:33:27;;;;;;;8.02;3.30;;;;;;;19.65;58.78;100277.28;4954734;29;20051;-84
2022/05/17 06:35:54;;;;;;;8.85;3.92;;;;;;;19.71;58.56;100275.06;4954943;29;20086;-84
2022/05/17 06:38:20;;;;;;;6.35;3.33;;;;;;;19.78;58.66;100276.22;4937337;29;20114;-84
2022/05/17 06:40:47;;;;;;;11.77;3.47;;;;;;;19.85;58.69;100287.19;4937309;29;20489;-84
2022/05/17 06:43:14;;;;;;;6.78;3.17;;;;;;;19.92;58.69;100294.53;4937269;29;20051;-84
2022/05/17 06:45:40;;;;;;;7.10;3.22;;;;;;;20.01;58.36;100298.25;4937443;29;20082;-85
2022/05/17 06:48:07;;;;;;;8.60;3.25;;;;;;;20.08;58.35;100295.03;4954363;29;20051;-85
2022/05/17 06:50:35;;;;;;;11.10;4.10;;;;;;;20.15;58.28;100302.34;4937142;29;20461;-85
2022/05/17 06:53:04;;;;;;;9.38;3.95;;;;;;;20.24;58.35;100297.16;4953022;29;20091;-84
2022/05/17 06:55:31;;;;;;;9.45;3.95;;;;;;;20.32;57.95;100305.34;4954676;29;20055;-84
2022/05/17 06:57:57;;;;;;;10.95;4.45;;;;;;;20.37;57.60;100305.78;4954460;29;20058;-85
2022/05/17 07:00:24;;;;;;;6.55;3.58;;;;;;;20.46;57.50;100308.59;4936963;29;20059;-84
2022/05/17 07:02:51;;;;;;;6.90;3.75;;;;;;;20.49;57.41;100306.53;4954374;29;20055;-85
2022/05/17 07:05:18;;;;;;;10.82;3.80;;;;;;;20.53;57.05;100312.44;4954328;29;20062;-84
2022/05/17 07:07:45;;;;;;;9.10;4.00;;;;;;;20.55;57.15;100310.44;4954118;29;20059;-85
2022/05/17 07:13:08;;;;;;;9.25;3.70;;;;;;;20.59;56.97;100311.03;4954908;29;20055;-85
2022/05/17 07:15:41;;;;;;;10.20;4.40;;;;;;;20.59;56.45;100317.22;4954239;29;20059;-85
2022/05/17 07:18:09;;;;;;;7.95;3.58;;;;;;;20.64;56.94;100314.94;4953781;29;20083;-85
2022/05/17 07:20:36;;;;;;;8.43;4.30;;;;;;;20.68;56.85;100323.56;4953437;28;20055;-85
2022/05/17 07:23:03;;;;;;;8.32;4.32;;;;;;;20.72;56.76;100327.66;4953678;29;20051;-84
2022/05/17 07:25:32;;;;;;;7.25;4.05;;;;;;;20.75;56.76;100321.16;4953748;29;20110;-85
2022/05/17 07:27:59;;;;;;;8.18;4.30;;;;;;;20.79;56.56;100319.91;4953774;29;20545;-85
2022/05/17 07:30:27;;;;;;;10.98;4.13;;;;;;;20.82;56.93;100330.34;4936331;29;20106;-84
2022/05/17 07:32:53;;;;;;;10.07;4.25;;;;;;;20.84;56.78;100328.34;4953354;29;20469;-84
2022/05/17 07:35:20;;;;;;;7.38;4.18;;;;;;;20.87;56.58;100328.09;4953676;29;20063;-85
2022/05/17 07:37:47;;;;;;;9.52;4.88;;;;;;;20.89;56.75;100334.16;4953558;29;20145;-85
2022/05/17 07:40:15;;;;;;;8.40;4.68;;;;;;;20.91;56.79;100334.00;4952992;29;20055;-84
2022/05/17 07:42:41;;;;;;;9.45;5.07;;;;;;;20.94;56.73;100341.78;4936069;29;20059;-84
2022/05/17 07:45:14;;;;;;;10.02;4.85;;;;;;;20.94;56.69;100339.91;4953129;29;20054;-84
2022/05/17 07:47:41;;;;;;;10.80;4.93;;;;;;;20.98;56.37;100342.31;4952025;29;20063;-84
2022/05/17 07:50:08;;;;;;;6.60;4.25;;;;;;;21.01;56.66;100347.41;4936040;29;20098;-85
2022/05/17 07:52:35;;;;;;;11.20;4.78;;;;;;;21.05;56.55;100354.16;4952091;29;20047;-85
2022/05/17 07:55:03;;;;;;;7.97;4.47;;;;;;;21.10;56.38;100351.91;4953349;29;20540;-84
2022/05/17 07:57:30;;;;;;;6.53;4.43;;;;;;;21.16;56.92;100350.50;4953657;29;20513;-84
2022/05/17 07:59:56;;;;;;;9.52;4.20;;;;;;;21.24;56.76;100353.31;4936278;29;20055;-85
2022/05/17 08:02:23;;;;;;;9.70;4.10;;;;;;;21.31;56.55;100354.41;4953285;29;20109;-84
2022/05/17 08:04:50;;;;;;;9.43;3.45;;;;;;;21.40;56.03;100355.38;4936072;29;20509;-84
2022/05/17 08:07:16;;;;;;;7.38;3.25;;;;;;;21.50;56.67;100355.38;4953494;29;20051;-84
2022/05/17 08:09:43;;;;;;;8.38;3.72;;;;;;;21.60;56.24;100358.00;4936310;29;20055;-85
2022/05/17 08:12:14;;;;;;;10.35;3.70;;;;;;;21.73;55.86;100358.59;4952845;29;20051;-84
2022/05/17 08:14:41;;;;;;;6.63;2.97;;;;;;;21.86;55.52;100363.63;4935754;29;20055;-84
2022/05/17 08:17:08;;;;;;;6.82;2.83;;;;;;;21.99;54.55;100365.13;4953185;29;20055;-84
2022/05/17 08:19:37;;;;;;;7.78;2.67;;;;;;;22.09;53.66;100365.91;4951774;29;20058;-84
2022/05/17 08:22:05;;;;;;;6.43;2.47;;;;;;;22.18;53.12;100366.88;4953086;29;20106;-84
2022/05/17 08:27:31;;;;;;;8.93;2.85;;;;;;;22.28;53.22;100366.81;4952898;29;20051;-84
2022/05/17 08:27:31;;;;;;;4.60;2.45;;;;;;;22.38;53.71;100367.59;4952686;29;20058;-84
2022/05/17 08:30:03;;;;;;;6.13;2.40;;;;;;;22.51;51.93;100372.59;4952667;29;20061;-84
2022/05/17 08:35:15;;;;;;;8.27;2.28;;;;;;;22.75;51.55;100367.69;4952597;29;20051;-85
2022/05/17 08:37:42;;;;;;;4.80;2.05;;;;;;;22.84;51.78;100369.44;4952805;29;20047;-84
2022/05/17 08:40:18;;;;;;;11.35;2.20;;;;;;;22.92;49.85;100371.38;4952342;29;20055;-83
2022/05/17 08:43:07;;;;;;;5.03;1.88;;;;;;;23.01;49.83;100366.91;4952514;29;20063;-84
2022/05/17 08:46:03;;;;;;;9.40;2.65;;;;;;;23.16;50.54;100375.25;4952761;29;20130;-84
2022/05/17 08:48:43;;;;;;;5.65;1.52;;;;;;;23.31;49.58;100375.56;4946708;29;20122;-84
2022/05/17 08:51:13;;;;;;;2.97;1.60;;;;;;;23.42;49.28;100369.13;4952816;29;20043;-84
2022/05/17 08:53:41;;;;;;;8.88;2.47;;;;;;;23.51;48.21;100370.03;4953417;29;20126;-84
2022/05/17 08:56:09;;;;;;;10.27;2.28;;;;;;;23.54;48.19;100378.59;4952525;29;20138;-85
2022/05/17 08:58:39;;;;;;;5.10;1.80;;;;;;;23.58;47.59;100378.31;4952782;29;20055;-85
2022/05/17 09:01:18;;;;;;;5.22;2.05;;;;;;;23.55;47.49;100382.16;4952658;29;20055;-84
2022/05/17 09:03:56;;;;;;;6.40;2.28;;;;;;;23.56;47.63;100375.78;4952667;29;20102;-84
2022/05/17 09:06:41;;;;;;;6.00;2.22;;;;;;;23.55;48.48;100380.28;4952442;29;20086;-84
2022/05/17 09:09:20;;;;;;;3.83;1.45;;;;;;;23.62;48.65;100380.50;4952894;29;20055;-85
2022/05/17 09:11:54;;;;;;;11.27;2.38;;;;;;;23.74;48.10;100372.19;4952272;29;20051;-84
2022/05/17 09:14:25;;;;;;;7.32;2.20;;;;;;;23.87;47.46;100377.09;4935513;29;20070;-84
2022/05/17 09:17:10;;;;;;;5.35;2.05;;;;;;;23.95;47.92;100378.00;4952571;29;20501;-84
2022/05/17 09:19:37;;;;;;;3.50;1.92;;;;;;;24.05;47.48;100380.59;4952861;29;20051;-84
2022/05/17 09:22:03;;;;;;;3.50;2.00;;;;;;;24.11;47.55;100384.47;4935551;29;20052;-83
2022/05/17 09:24:37;;;;;;;6.95;2.55;;;;;;;24.15;47.32;100379.66;4935922;29;20055;-84
2022/05/17 09:27:07;;;;;;;4.75;2.50;;;;;;;24.25;48.32;100380.34;4952986;29;20055;-84
2022/05/17 09:29:42;;;;;;;8.32;2.40;;;;;;;24.37;48.40;100377.38;4952953;29;20497;-85
2022/05/17 09:32:11;;;;;;;7.20;2.63;;;;;;;24.49;47.36;100380.59;4951805;29;20553;-84
2022/05/17 09:34:44;;;;;;;4.25;2.08;;;;;;;24.57;46.44;100380.63;4953177;29;20058;-84
2022/05/17 09:37:20;;;;;;;;;;;;;;;24.64;48.41;100388.88;4953779;29;20051;-84
2022/05/17 09:39:49;;;;;;;5.28;2.08;;;;;;;24.74;47.19;100384.19;4936175;29;19930;-85
2022/05/17 09:42:44;;;;;;;4.57;2.00;;;;;;;24.72;47.11;100383.50;4953423;29;20051;-84
2022/05/17 09:45:16;;;;;;;6.88;2.22;;;;;;;24.77;46.75;100383.84;4938053;29;20098;-84
2022/05/17 09:47:55;;;;;;;6.00;1.90;;;;;;;24.74;46.76;100378.78;4957530;29;20057;-84
2022/05/17 09:53:15;;;;;;;7.90;2.15;;;;;;;24.73;46.53;100390.56;4956570;29;20098;-84
2022/05/17 09:55:48;;;;;;;6.15;2.40;;;;;;;24.68;45.80;100401.84;4955449;29;20051;-86
2022/05/17 09:58:33;;;;;;;6.07;1.90;;;;;;;24.63;46.10;100404.16;4955397;29;20126;-84
2022/05/17 10:01:09;;;;;;;5.97;1.90;;;;;;;24.64;45.91;100400.50;4956862;29;20114;-85
2022/05/17 10:03:40;;;;;;;7.32;2.25;;;;;;;24.63;45.19;100404.16;4956638;29;20132;-85
2022/05/17 10:06:30;;;;;;;5.13;1.88;;;;;;;24.54;45.71;100397.94;4956214;29;20094;-84
2022/05/17 10:09:04;;;;;;;7.05;2.30;;;;;;;24.52;45.38;100404.50;4955170;29;20077;-84
2022/05/17 10:11:53;;;;;;;6.60;2.03;;;;;;;24.37;44.83;100399.72;4956683;29;20058;-84
2022/05/17 10:14:43;;;;;;;6.97;1.92;;;;;;;24.29;45.01;100403.22;4956605;29;20122;-85
2022/05/17 10:17:17;;;;;;;6.60;2.00;;;;;;;24.20;44.99;100402.38;4954562;29;20356;-85
2022/05/17 10:19:56;;;;;;;6.28;1.75;;;;;;;24.06;45.08;100398.41;4956059;29;20058;-85
2022/05/17 10:22:23;;;;;;;5.97;1.80;;;;;;;24.01;45.03;100403.41;4955657;29;20051;-86
2022/05/17 10:25:09;;;;;;;5.40;1.70;;;;;;;23.86;44.93;100394.25;4956230;29;20106;-84
2022/05/17 10:27:40;;;;;;;5.05;1.77;;;;;;;23.81;44.91;100406.31;4954454;29;20509;-85
2022/05/17 10:30:20;;;;;;;7.35;2.05;;;;;;;23.69;44.46;100403.06;4955930;29;20110;-84
2022/05/17 10:33:10;;;;;;;7.25;1.90;;;;;;;23.62;45.51;100399.31;4955927;29;20110;-85
2022/05/17 10:35:47;;;;;;;4.10;1.42;;;;;;;23.59;44.87;100401.47;4956564;29;20055;-84
2022/05/17 10:38:27;;;;;;;3.95;1.52;;;;;;;23.52;45.09;100407.47;4956202;29;20059;-85
2022/05/17 10:40:56;;;;;;;6.82;1.83;;;;;;;23.51;45.34;100400.41;4956638;29;20109;-86
2022/05/17 10:43:55;;;;;;;5.97;1.70;;;;;;;23.41;45.98;100407.72;4956690;29;20051;-86
2022/05/17 10:46:30;;;;;;;3.78;1.70;;;;;;;23.40;45.91;100403.38;4904245;29;20051;-84
2022/05/17 10:49:24;;;;;;;5.00;2.03;;;;;;;23.36;45.88;100399.31;4957049;29;20058;-85
2022/05/17 10:52:15;;;;;;;4.95;1.90;;;;;;;23.32;46.44;100409.47;4956828;29;20047;-84
2022/05/17 10:54:54;;;;;;;7.70;2.30;;;;;;;23.33;46.05;100410.31;4957840;29;20095;-86
2022/05/17 10:57:36;;;;;;;4.90;1.92;;;;;;;23.33;45.69;100410.31;4954842;28;20051;-84
2022/05/17 11:00:21;;;;;;;6.47;1.83;;;;;;;23.29;45.91;100407.94;4955739;29;20062;-84
2022/05/17 11:02:47;;;;;;;7.38;2.15;;;;;;;23.35;46.44;100400.28;4955370;29;20569;-84
2022/05/17 11:05:34;;;;;;;6.82;2.00;;;;;;;23.32;47.23;100403.25;4957236;29;20059;-84
2022/05/17 11:08:19;;;;;;;6.22;2.00;;;;;;;23.36;47.49;100397.44;4957858;29;20051;-84
2022/05/17 11:11:16;;;;;;;5.18;2.00;;;;;;;23.41;47.95;100394.31;4957077;29;20509;-85
2022/05/17 11:14:17;;;;;;;6.40;1.98;;;;;;;23.46;46.59;100391.13;4957203;29;20631;-84
2022/05/17 11:16:46;;;;;;;6.47;1.98;;;;;;;23.55;47.20;100392.91;4956931;29;20109;-84
2022/05/17 11:19:38;;;;;;;5.43;1.90;;;;;;;23.50;47.04;100406.78;4957556;29;20051;-84
2022/05/17 11:22:18;;;;;;;5.63;1.67;;;;;;;23.56;47.28;100395.41;4956666;29;20109;-85
2022/05/17 11:25:12;;;;;;;8.23;2.33;;;;;;;23.55;47.36;100399.09;4956991;29;20051;-84
2022/05/17 11:28:07;;;;;;;5.78;1.80;;;;;;;23.61;47.69;100400.31;4957166;29;20074;-84
2022/05/17 11:30:43;;;;;;;3.92;1.98;;;;;;;23.65;47.25;100396.31;4957359;29;20055;-84
2022/05/17 11:33:21;;;;;;;4.30;1.40;;;;;;;23.71;46.53;100400.22;4956906;29;20051;-84
2022/05/17 11:36:10;;;;;;;4.90;1.50;;;;;;;23.72;46.46;100401.03;4957395;29;20051;-84
2022/05/17 11:38:37;;;;;;;5.70;1.90;;;;;;;23.76;46.76;100399.72;4956911;29;20055;-85
2022/05/17 11:41:18;;;;;;;5.80;1.90;;;;;;;23.75;47.43;100401.59;4956905;29;20109;-84
2022/05/17 11:44:10;;;;;;;6.03;1.83;;;;;;;23.84;47.07;100398.97;4939433;29;20051;-84
2022/05/17 11:46:44;;;;;;;6.68;2.00;;;;;;;23.86;47.33;100397.78;4957424;29;20130;-85
2022/05/17 11:49:11;;;;;;;5.60;1.67;;;;;;;23.90;46.93;100393.78;4956691;29;20055;-86